Time;durP1;ratioP1;P1;durP2;ratioP2;P2;SDS_P1;SDS_P2;PMS_P1;PMS_P2;Temp;Humidity;BMP_temperature;BMP_pressure;BME280_temperature;BME280_humidity;BME280_pressure;Samples;Min_cycle;Max_cycle;Signal;HPM_P1;HPM_P2
2022/11/08 00:02:01;;;;;;;3.93;1.57;;;;;;;13.20;80.12;100333.41;4982535;28;20258;-80
2022/11/08 00:04:29;;;;;;;3.20;1.63;;;;;;;13.20;80.35;100330.78;4982556;28;20206;-82
2022/11/08 00:15:09;;;;;;;4.37;1.70;;;;;;;13.08;80.48;100340.78;5002838;28;20255;-81
2022/11/08 00:17:35;;;;;;;1.50;1.40;;;;;;;13.05;80.56;100343.47;5003389;28;20255;-81
2022/11/08 00:20:04;;;;;;;2.90;1.70;;;;;;;13.01;81.03;100334.00;5005083;28;20242;-81
2022/11/08 00:22:31;;;;;;;2.93;1.37;;;;;;;12.99;81.07;100320.09;5004129;28;20211;-81
2022/11/08 00:24:57;;;;;;;3.23;1.23;;;;;;;12.96;81.15;100329.81;5003721;28;20209;-80
2022/11/08 00:27:25;;;;;;;2.57;1.33;;;;;;;12.97;81.04;100335.00;5004566;28;20237;-81
2022/11/08 00:29:51;;;;;;;2.60;1.40;;;;;;;12.95;80.97;100318.47;5003428;28;20205;-81
2022/11/08 00:32:19;;;;;;;3.37;1.50;;;;;;;12.96;81.27;100316.69;5005161;28;20204;-80
2022/11/08 00:34:47;;;;;;;3.40;1.43;;;;;;;12.89;81.52;100324.75;5006268;28;20219;-83
2022/11/08 00:37:15;;;;;;;2.73;1.53;;;;;;;12.95;81.50;100317.63;5006108;28;20323;-80
2022/11/08 00:39:42;;;;;;;3.67;1.50;;;;;;;12.96;81.78;100312.31;5006169;28;20211;-80
2022/11/08 00:42:09;;;;;;;2.83;1.57;;;;;;;12.96;81.35;100314.94;5005725;28;20554;-80
2022/11/08 00:44:35;;;;;;;4.17;1.60;;;;;;;12.95;81.53;100310.59;5005384;28;20216;-81
2022/11/08 00:47:02;;;;;;;2.07;1.70;;;;;;;13.02;81.30;100313.88;5006279;28;20236;-82
2022/11/08 00:49:28;;;;;;;2.17;1.33;;;;;;;13.04;81.25;100312.06;5006452;28;20279;-81
2022/11/08 00:51:55;;;;;;;3.80;1.60;;;;;;;12.97;81.04;100318.44;5005449;28;20232;-80
2022/11/08 00:54:23;;;;;;;3.37;1.57;;;;;;;12.90;81.56;100315.13;5006295;28;20212;-80
2022/11/08 00:56:50;;;;;;;4.03;1.70;;;;;;;12.97;81.51;100318.44;5005234;28;20229;-80
2022/11/08 00:59:18;;;;;;;3.20;1.50;;;;;;;12.99;81.31;100327.09;5005980;28;20209;-81
2022/11/08 01:01:45;;;;;;;3.50;1.83;;;;;;;12.93;81.09;100327.28;5004887;28;20209;-81
2022/11/08 01:04:15;;;;;;;3.30;1.63;;;;;;;12.96;81.05;100327.19;5004990;28;20216;-81
2022/11/08 01:06:42;;;;;;;3.60;1.50;;;;;;;12.95;81.27;100331.56;5004908;28;20587;-80
2022/11/08 01:09:08;;;;;;;3.90;1.40;;;;;;;12.94;80.85;100332.47;5005472;28;20675;-81
2022/11/08 01:11:38;;;;;;;3.07;1.53;;;;;;;12.96;81.18;100338.50;5006196;28;20227;-82
2022/11/08 01:14:04;;;;;;;3.47;1.60;;;;;;;12.89;81.03;100331.75;5005702;28;20273;-81
2022/11/08 01:16:33;;;;;;;3.77;1.90;;;;;;;12.79;81.22;100323.31;5005380;28;20292;-80
2022/11/08 01:19:00;;;;;;;3.03;1.40;;;;;;;12.70;81.86;100310.47;5005561;28;20213;-81
2022/11/08 01:21:27;;;;;;;3.57;1.60;;;;;;;12.76;81.71;100294.59;5005538;28;20208;-80
2022/11/08 01:23:54;;;;;;;2.13;1.77;;;;;;;12.81;81.67;100297.09;5005204;28;20208;-80
2022/11/08 01:26:23;;;;;;;3.27;1.67;;;;;;;12.77;81.58;100298.09;5005063;28;20212;-81
2022/11/08 01:28:50;;;;;;;3.80;1.57;;;;;;;12.78;81.65;100307.63;5019713;22;20735;-78
2022/11/08 01:31:19;;;;;;;3.10;1.40;;;;;;;12.75;81.60;100299.91;4993657;28;20233;-79
2022/11/08 01:33:46;;;;;;;4.27;1.40;;;;;;;12.74;81.74;100306.88;4995130;28;20213;-79
2022/11/08 01:36:14;;;;;;;5.60;1.63;;;;;;;12.71;81.89;100296.50;4994633;28;20213;-79
2022/11/08 01:38:41;;;;;;;4.47;1.47;;;;;;;12.66;81.65;100309.72;4995311;28;20232;-79
2022/11/08 01:41:09;;;;;;;2.13;1.67;;;;;;;12.57;82.23;100275.97;4995010;28;20216;-79
2022/11/08 01:43:40;;;;;;;2.47;1.70;;;;;;;12.62;82.39;100279.28;4995564;28;20231;-79
2022/11/08 01:46:39;;;;;;;4.40;1.60;;;;;;;12.54;82.39;100268.19;4995025;28;20209;-79
2022/11/08 01:49:48;;;;;;;2.93;1.83;;;;;;;12.49;82.83;100262.25;4994670;28;20237;-79
2022/11/08 01:52:26;;;;;;;3.13;1.63;;;;;;;12.44;82.83;100246.66;4994602;28;20235;-80
2022/11/08 01:55:14;;;;;;;4.73;2.27;;;;;;;12.44;82.94;100243.19;4994151;28;20214;-79
2022/11/08 01:57:47;;;;;;;3.27;1.73;;;;;;;12.39;83.50;100245.06;4994533;28;20231;-80
2022/11/08 02:00:15;;;;;;;3.53;1.77;;;;;;;12.40;83.32;100241.56;4994579;28;20208;-78
2022/11/08 02:02:47;;;;;;;3.43;1.60;;;;;;;12.39;83.00;100240.72;4994814;28;20223;-80
2022/11/08 02:05:25;;;;;;;4.77;1.87;;;;;;;12.37;83.41;100237.28;4995193;28;20214;-80
2022/11/08 02:07:55;;;;;;;2.47;1.30;;;;;;;12.30;83.42;100238.34;4994588;28;20238;-80
2022/11/08 02:10:24;;;;;;;2.90;1.47;;;;;;;12.26;83.13;100234.13;4994474;28;20209;-79
2022/11/08 02:12:51;;;;;;;2.60;1.77;;;;;;;12.21;83.57;100229.03;4994202;28;20216;-79
2022/11/08 02:15:20;;;;;;;4.47;1.30;;;;;;;12.14;84.01;100214.41;4995230;28;20212;-80
2022/11/08 02:17:48;;;;;;;2.50;1.30;;;;;;;12.10;83.99;100207.53;4994437;28;20711;-79
2022/11/08 02:20:15;;;;;;;3.87;1.70;;;;;;;12.05;83.39;100199.84;4994262;28;20200;-79
2022/11/08 02:22:47;;;;;;;2.47;1.50;;;;;;;12.00;84.17;100203.47;4994618;28;20209;-80
2022/11/08 02:25:15;;;;;;;3.00;1.83;;;;;;;11.87;85.57;100163.69;4995359;28;20221;-79
2022/11/08 02:27:42;;;;;;;3.43;1.80;;;;;;;11.95;85.28;100161.75;4994587;28;20243;-79
2022/11/08 02:30:09;;;;;;;3.43;2.00;;;;;;;11.99;85.30;100157.28;4995235;28;20212;-80
2022/11/08 02:32:39;;;;;;;4.67;1.77;;;;;;;12.00;85.11;100154.63;4995417;28;20223;-80
2022/11/08 02:35:09;;;;;;;2.77;1.73;;;;;;;12.04;84.82;100156.25;4994723;28;20699;-80
2022/11/08 02:37:36;;;;;;;4.20;1.90;;;;;;;11.97;85.66;100130.31;4995407;28;20619;-80
2022/11/08 02:40:03;;;;;;;5.57;2.10;;;;;;;11.99;85.57;100125.91;4995071;28;20304;-80
2022/11/08 02:42:31;;;;;;;5.97;1.73;;;;;;;12.04;85.52;100134.47;4995556;28;20211;-79
2022/11/08 02:44:57;;;;;;;3.63;1.93;;;;;;;12.01;85.16;100137.16;4995711;28;20207;-80
2022/11/08 02:47:24;;;;;;;3.70;2.07;;;;;;;12.03;84.91;100143.22;5001303;28;20228;-78
2022/11/08 02:49:50;;;;;;;2.47;1.70;;;;;;;11.95;85.71;100139.97;5002623;28;20230;-78
2022/11/08 02:52:17;;;;;;;2.50;1.57;;;;;;;12.02;85.28;100133.66;5003968;28;20232;-79
2022/11/08 02:54:43;;;;;;;3.10;1.40;;;;;;;11.94;85.60;100140.88;5004876;28;20215;-79
2022/11/08 02:57:11;;;;;;;2.87;1.30;;;;;;;11.98;85.06;100143.34;5003291;28;20213;-80
2022/11/08 02:59:39;;;;;;;4.67;1.87;;;;;;;11.95;85.32;100145.19;5004314;28;20230;-79
2022/11/08 03:02:06;;;;;;;4.53;1.90;;;;;;;11.99;85.21;100133.75;5004941;28;20210;-80
2022/11/08 03:04:32;;;;;;;2.83;1.27;;;;;;;11.99;85.37;100141.59;4998260;28;20211;-78
2022/11/08 03:06:59;;;;;;;2.97;1.70;;;;;;;12.02;84.99;100154.59;4994567;28;20228;-79
2022/11/08 03:09:26;;;;;;;2.00;1.43;;;;;;;12.04;84.75;100158.00;4995478;28;20219;-79
2022/11/08 03:11:52;;;;;;;3.00;1.60;;;;;;;12.04;84.89;100168.47;4994332;28;20232;-80
2022/11/08 03:14:19;;;;;;;1.53;1.30;;;;;;;12.02;84.96;100172.91;4995617;28;20213;-79
2022/11/08 03:16:46;;;;;;;3.67;1.90;;;;;;;12.04;85.09;100160.63;4995335;28;20207;-79
2022/11/08 03:19:13;;;;;;;3.10;1.70;;;;;;;11.98;84.95;100160.81;4995044;28;20231;-78
2022/11/08 03:21:39;;;;;;;2.80;1.70;;;;;;;11.87;85.24;100164.56;4995007;28;20200;-78
2022/11/08 03:24:07;;;;;;;4.27;1.67;;;;;;;11.91;85.20;100144.44;4997525;28;20215;-78
2022/11/08 03:26:33;;;;;;;6.17;1.80;;;;;;;11.92;85.45;100157.47;4998817;28;20216;-79
2022/11/08 03:29:00;;;;;;;4.57;1.87;;;;;;;11.90;85.51;100153.19;4999114;28;20614;-79
2022/11/08 03:31:27;;;;;;;3.17;1.40;;;;;;;11.94;85.49;100149.56;4994978;28;20602;-78
2022/11/08 03:33:55;;;;;;;3.93;1.83;;;;;;;11.93;85.11;100160.94;4995438;28;20204;-78
2022/11/08 03:36:21;;;;;;;4.27;1.80;;;;;;;11.89;85.21;100159.31;4994653;28;20228;-78
2022/11/08 03:38:49;;;;;;;4.17;2.07;;;;;;;11.91;84.96;100154.88;4995331;28;20256;-79
2022/11/08 03:41:16;;;;;;;5.70;1.67;;;;;;;11.98;84.91;100160.81;4995060;28;20204;-79
2022/11/08 03:43:42;;;;;;;3.43;1.67;;;;;;;11.96;84.54;100175.69;4995250;28;20686;-78
2022/11/08 03:46:08;;;;;;;2.77;1.60;;;;;;;11.92;84.54;100173.16;4995401;28;20208;-79
2022/11/08 03:48:35;;;;;;;2.87;1.63;;;;;;;11.88;85.12;100171.50;4995216;28;20232;-78
2022/11/08 03:51:03;;;;;;;2.13;1.50;;;;;;;11.94;84.53;100178.34;4994878;28;20585;-78
2022/11/08 03:53:29;;;;;;;2.40;1.57;;;;;;;11.89;84.85;100170.66;4995527;28;20212;-78
2022/11/08 03:55:58;;;;;;;2.73;1.57;;;;;;;11.77;84.69;100181.41;4995375;28;20212;-78
2022/11/08 03:58:25;;;;;;;4.10;1.83;;;;;;;11.69;85.62;100158.09;4995255;28;20715;-79
2022/11/08 04:00:51;;;;;;;3.47;1.57;;;;;;;11.75;85.65;100141.38;4995221;28;20210;-78
2022/11/08 04:03:18;;;;;;;1.73;1.43;;;;;;;11.80;85.35;100142.09;4995149;28;20216;-78
2022/11/08 04:05:44;;;;;;;4.67;1.50;;;;;;;11.82;84.75;100144.69;4996816;28;20204;-79
2022/11/08 04:08:12;;;;;;;3.63;1.50;;;;;;;11.84;84.39;100161.19;4995141;28;20233;-78
2022/11/08 04:10:39;;;;;;;2.33;1.27;;;;;;;11.80;84.65;100164.78;4994927;28;20621;-78
2022/11/08 04:15:54;;;;;;;3.63;1.50;;;;;;;11.68;84.18;100181.69;4995431;28;20211;-79
2022/11/08 04:21:20;;;;;;;3.37;1.77;;;;;;;11.57;85.00;100166.28;4995052;28;20212;-79
2022/11/08 04:23:49;;;;;;;4.30;1.60;;;;;;;11.56;85.12;100159.34;4995385;28;20215;-78
2022/11/08 04:26:16;;;;;;;4.83;1.50;;;;;;;11.61;84.67;100157.44;4995310;28;20208;-78
2022/11/08 04:28:43;;;;;;;3.40;1.60;;;;;;;11.62;84.51;100161.78;4995111;28;20242;-78
2022/11/08 04:31:13;;;;;;;2.13;1.93;;;;;;;11.63;84.24;100162.63;4994544;28;20702;-78
2022/11/08 04:33:40;;;;;;;3.47;2.20;;;;;;;11.52;84.82;100161.19;4996038;28;20204;-77
2022/11/08 04:36:09;;;;;;;2.10;1.60;;;;;;;11.52;84.74;100152.47;4993939;28;20216;-78
2022/11/08 04:38:35;;;;;;;3.20;1.73;;;;;;;11.49;84.81;100149.94;4994605;28;20228;-78
2022/11/08 04:41:05;;;;;;;3.60;1.70;;;;;;;11.44;85.68;100136.16;4995016;28;20215;-78
2022/11/08 04:43:32;;;;;;;2.53;2.10;;;;;;;11.48;85.47;100128.19;4995029;28;20212;-79
2022/11/08 04:46:00;;;;;;;2.50;1.47;;;;;;;11.46;86.02;100106.47;4994985;28;20205;-78
2022/11/08 04:48:26;;;;;;;4.60;2.00;;;;;;;11.42;86.39;100090.91;4996504;28;20256;-80
2022/11/08 04:50:53;;;;;;;5.97;1.93;;;;;;;11.41;86.91;100076.13;4997927;28;20215;-79
2022/11/08 04:53:23;;;;;;;3.13;1.80;;;;;;;11.42;87.28;100070.84;4999026;28;20244;-79
2022/11/08 04:55:50;;;;;;;6.17;1.87;;;;;;;11.44;86.88;100061.22;4997887;28;20208;-79
2022/11/08 04:58:18;;;;;;;4.83;2.13;;;;;;;11.47;86.71;100061.09;4997280;28;20229;-79
2022/11/08 05:00:44;;;;;;;3.77;2.00;;;;;;;11.45;86.89;100062.91;4996069;28;20207;-79
2022/11/08 05:03:10;;;;;;;2.30;1.80;;;;;;;11.48;86.71;100065.44;4995756;28;20208;-78
2022/11/08 05:05:37;;;;;;;2.80;1.70;;;;;;;11.44;86.64;100069.06;4994680;28;20675;-78
2022/11/08 05:08:04;;;;;;;3.33;1.90;;;;;;;11.51;86.38;100081.03;4994897;28;20228;-78
2022/11/08 05:10:30;;;;;;;5.87;2.07;;;;;;;11.53;86.04;100092.31;4994500;28;20213;-78
2022/11/08 05:12:57;;;;;;;2.23;1.90;;;;;;;11.39;86.32;100097.06;4994745;28;20257;-78
2022/11/08 05:15:25;;;;;;;5.70;2.13;;;;;;;11.44;86.30;100086.50;4994973;28;20243;-78
2022/11/08 05:17:51;;;;;;;3.70;1.73;;;;;;;11.48;85.94;100091.59;4994315;28;20224;-77
2022/11/08 05:25:46;;;;;;;5.07;2.73;;;;;;;11.47;85.90;100104.69;4994043;28;20328;-78
2022/11/08 05:28:13;;;;;;;3.73;2.13;;;;;;;11.41;86.25;100103.09;4994403;28;20244;-79
2022/11/08 05:30:41;;;;;;;3.37;2.10;;;;;;;11.39;85.99;100104.06;4993799;28;20213;-79
2022/11/08 05:33:08;;;;;;;3.67;1.80;;;;;;;11.42;86.13;100093.53;4994345;28;20228;-78
2022/11/08 05:35:34;;;;;;;3.23;1.80;;;;;;;11.40;86.41;100090.09;4994273;28;20205;-78
2022/11/08 05:38:01;;;;;;;2.67;1.90;;;;;;;11.31;86.87;100083.34;4994475;28;20231;-78
2022/11/08 05:40:27;;;;;;;2.83;1.60;;;;;;;11.27;87.05;100077.34;4994204;28;20207;-78
2022/11/08 05:42:54;;;;;;;2.60;1.97;;;;;;;11.25;86.83;100049.56;4994908;28;20714;-78
2022/11/08 05:45:21;;;;;;;2.40;1.90;;;;;;;11.23;86.98;100053.97;4994802;28;20220;-78
2022/11/08 05:47:49;;;;;;;6.33;2.63;;;;;;;11.17;87.31;100046.31;4993823;28;20234;-78
2022/11/08 05:50:15;;;;;;;2.73;1.90;;;;;;;11.05;87.76;100034.44;4994022;28;20239;-78
2022/11/08 05:52:42;;;;;;;3.27;1.90;;;;;;;11.10;88.15;100012.53;4994126;28;20594;-78
2022/11/08 05:55:09;;;;;;;3.23;1.80;;;;;;;11.06;87.92;100010.03;4994361;28;20214;-78
2022/11/08 05:57:35;;;;;;;2.40;1.90;;;;;;;10.98;88.54;99998.94;4995985;28;20223;-80
2022/11/08 06:00:03;;;;;;;7.20;2.93;;;;;;;10.96;88.74;99987.69;4993962;28;20208;-79
2022/11/08 06:02:31;;;;;;;3.17;2.00;;;;;;;11.00;89.05;99990.19;4994611;28;20644;-79
2022/11/08 06:04:59;;;;;;;4.37;2.70;;;;;;;10.99;88.94;99983.22;4994144;28;20749;-80
2022/11/08 06:07:26;;;;;;;3.00;1.93;;;;;;;10.96;89.12;99991.16;4995674;28;20243;-80
2022/11/08 06:09:52;;;;;;;2.60;2.17;;;;;;;10.93;89.46;99973.81;4997152;28;20295;-79
2022/11/08 06:12:19;;;;;;;3.17;2.03;;;;;;;10.89;89.67;99966.13;4995045;28;20237;-79
2022/11/08 06:14:46;;;;;;;3.77;2.20;;;;;;;10.87;89.66;99971.38;4986205;28;20209;-80
2022/11/08 06:17:12;;;;;;;3.93;2.30;;;;;;;10.97;89.34;99965.91;4995913;28;20213;-79
2022/11/08 06:19:38;;;;;;;3.63;2.10;;;;;;;10.93;89.36;99976.41;4996791;28;20215;-79
2022/11/08 06:22:06;;;;;;;2.40;2.00;;;;;;;10.95;89.45;99979.00;4997104;28;20214;-80
2022/11/08 06:24:33;;;;;;;3.87;2.30;;;;;;;10.85;89.92;99977.53;4997554;28;20208;-79
2022/11/08 06:26:59;;;;;;;5.53;2.50;;;;;;;10.93;89.91;99965.97;4996398;28;20249;-79
2022/11/08 06:29:26;;;;;;;2.67;2.00;;;;;;;10.94;89.99;99964.22;4997875;28;20209;-80
2022/11/08 06:31:52;;;;;;;2.70;2.30;;;;;;;10.95;90.20;99965.94;4995851;28;20227;-80
2022/11/08 06:34:19;;;;;;;4.20;2.10;;;;;;;10.95;89.81;99965.94;4996097;28;20242;-80
2022/11/08 06:36:45;;;;;;;5.00;2.47;;;;;;;10.95;89.75;99976.38;4996409;28;20228;-80
2022/11/08 06:39:13;;;;;;;3.67;2.53;;;;;;;10.94;89.88;99969.44;4991169;28;20220;-80
2022/11/08 06:41:40;;;;;;;6.00;2.80;;;;;;;10.95;89.93;99960.72;4985933;28;20714;-81
2022/11/08 06:44:06;;;;;;;3.00;2.10;;;;;;;11.03;89.91;99969.19;4987948;28;20199;-81
2022/11/08 06:46:33;;;;;;;4.40;2.50;;;;;;;11.02;90.11;99966.63;4988597;28;20212;-80
2022/11/08 06:48:59;;;;;;;3.80;2.10;;;;;;;11.10;89.72;99967.28;4986968;28;20721;-80
2022/11/08 06:51:25;;;;;;;4.33;2.17;;;;;;;11.10;89.34;99978.56;4995960;28;20222;-79
2022/11/08 06:53:52;;;;;;;3.33;2.13;;;;;;;11.05;90.22;99969.16;4986721;28;20223;-79
2022/11/08 06:56:20;;;;;;;3.10;2.10;;;;;;;11.02;90.50;99962.28;4987299;28;20208;-80
2022/11/08 06:58:46;;;;;;;3.87;2.20;;;;;;;11.06;90.22;99963.00;4990140;28;20216;-80
2022/11/08 07:01:13;;;;;;;4.17;2.40;;;;;;;11.07;90.19;99962.13;4990064;28;20205;-80
2022/11/08 07:03:39;;;;;;;3.87;2.20;;;;;;;11.13;90.35;99957.56;4991032;28;20197;-80
2022/11/08 07:06:07;;;;;;;6.07;2.10;;;;;;;11.19;90.59;99958.31;4993028;28;20208;-80
2022/11/08 07:08:34;;;;;;;3.50;1.97;;;;;;;11.24;90.18;99956.44;4990748;28;20215;-79
2022/11/08 07:11:00;;;;;;;3.17;1.90;;;;;;;11.32;89.92;99962.28;4990240;28;20227;-80
2022/11/08 07:13:28;;;;;;;3.67;1.70;;;;;;;11.38;89.47;99977.78;4981474;28;20237;-79
2022/11/08 07:15:57;;;;;;;3.50;2.40;;;;;;;11.36;89.67;99978.69;4981469;28;20213;-80
2022/11/08 07:18:24;;;;;;;3.77;2.20;;;;;;;11.34;89.49;99973.53;4980944;28;20237;-80
2022/11/08 07:20:51;;;;;;;6.60;2.40;;;;;;;11.30;90.00;99967.53;4980544;28;20219;-79
2022/11/08 07:23:18;;;;;;;4.27;2.10;;;;;;;11.38;89.62;99964.69;4981116;28;20204;-80
2022/11/08 07:25:45;;;;;;;4.00;2.23;;;;;;;11.32;90.00;99957.91;4981648;28;20420;-80
2022/11/08 07:28:16;;;;;;;4.33;2.50;;;;;;;11.42;89.93;99968.94;5009627;22;20597;-80
2022/11/08 07:30:44;;;;;;;4.97;2.67;;;;;;;11.45;89.59;99979.28;5003349;28;20262;-80
2022/11/08 07:33:10;;;;;;;3.80;2.30;;;;;;;11.49;89.40;99987.88;5002834;28;20236;-79
2022/11/08 07:35:37;;;;;;;3.60;2.50;;;;;;;11.41;89.56;99993.34;4999304;28;20207;-79
2022/11/08 07:38:04;;;;;;;4.57;2.03;;;;;;;11.46;89.15;99991.47;4998477;28;20227;-79
2022/11/08 07:40:30;;;;;;;3.37;1.97;;;;;;;11.45;89.81;100001.94;4998500;28;20204;-80
2022/11/08 07:42:57;;;;;;;6.23;3.17;;;;;;;11.48;89.78;99988.81;5000264;28;20193;-81
2022/11/08 07:45:25;;;;;;;2.83;1.80;;;;;;;11.47;89.75;99992.31;4998337;28;20212;-82
2022/11/08 07:47:58;;;;;;;2.93;1.80;;;;;;;11.52;89.47;99988.66;5002868;28;20590;-82
2022/11/08 07:50:25;;;;;;;3.97;1.87;;;;;;;11.50;89.94;99974.78;5002874;28;20216;-81
2022/11/08 07:52:51;;;;;;;5.73;1.90;;;;;;;11.51;90.11;99967.78;5006673;28;20229;-80
2022/11/08 07:55:18;;;;;;;3.33;1.93;;;;;;;11.55;89.52;99963.31;5004267;28;20693;-81
2022/11/08 07:57:45;;;;;;;3.93;1.90;;;;;;;11.52;89.92;99956.44;5003861;28;20233;-81
2022/11/08 08:00:13;;;;;;;7.93;1.80;;;;;;;11.58;89.77;99968.47;5004204;28;20592;-79
2022/11/08 08:02:39;;;;;;;3.80;2.10;;;;;;;11.53;89.51;99973.81;5001412;28;20207;-79
2022/11/08 08:05:08;;;;;;;5.63;1.80;;;;;;;11.60;89.75;99966.66;5003823;28;20295;-80
2022/11/08 08:07:34;;;;;;;2.17;1.47;;;;;;;11.58;89.24;99963.25;5003481;28;20221;-81
2022/11/08 08:10:01;;;;;;;5.10;2.20;;;;;;;11.64;88.86;99953.44;5001511;28;20633;-82
2022/11/08 08:12:27;;;;;;;3.50;1.70;;;;;;;11.69;88.71;99962.00;5002552;28;20228;-80
2022/11/08 08:14:54;;;;;;;3.63;1.70;;;;;;;11.61;88.91;99961.38;5000972;28;20209;-81
2022/11/08 08:17:20;;;;;;;3.47;1.70;;;;;;;11.61;89.51;99931.78;5008632;28;20205;-82
2022/11/08 08:19:47;;;;;;;2.60;1.63;;;;;;;11.67;88.95;99942.03;5007165;28;20251;-78
2022/11/08 08:22:14;;;;;;;2.10;1.30;;;;;;;11.70;89.04;99960.25;5005034;28;20204;-81
2022/11/08 08:24:41;;;;;;;3.97;1.60;;;;;;;11.74;87.83;99961.84;5001387;28;20216;-82
2022/11/08 08:27:07;;;;;;;1.83;1.60;;;;;;;11.76;87.36;99980.97;5000200;28;20709;-81
2022/11/08 08:29:34;;;;;;;3.67;1.30;;;;;;;11.86;87.92;99976.31;5000059;28;20274;-82
2022/11/08 08:32:00;;;;;;;4.07;1.53;;;;;;;11.85;87.51;99975.47;4999705;28;20220;-81
2022/11/08 08:34:27;;;;;;;2.70;1.97;;;;;;;11.92;87.32;99986.59;5001969;28;20254;-83
2022/11/08 08:36:53;;;;;;;4.30;1.50;;;;;;;11.98;87.50;99972.47;5006767;28;20203;-81
2022/11/08 08:39:21;;;;;;;2.97;1.70;;;;;;;12.02;87.40;99972.31;5007160;28;20238;-82
2022/11/08 08:41:47;;;;;;;2.37;1.60;;;;;;;12.05;86.98;99966.13;5006636;28;20211;-82
2022/11/08 08:44:14;;;;;;;2.07;1.40;;;;;;;12.05;86.62;99977.47;4995835;28;20207;-82
2022/11/08 08:46:41;;;;;;;3.33;1.50;;;;;;;12.06;86.80;99970.47;4992393;28;20208;-82
2022/11/08 08:49:07;;;;;;;3.27;2.43;;;;;;;12.07;87.14;99967.81;5002931;28;20232;-81
2022/11/08 08:51:33;;;;;;;2.97;1.40;;;;;;;12.10;86.88;99975.53;5001382;28;20213;-82
2022/11/08 08:54:00;;;;;;;2.17;1.70;;;;;;;12.15;86.54;99969.31;5001195;28;20220;-81
2022/11/08 08:56:28;;;;;;;3.00;1.80;;;;;;;12.24;86.24;99979.47;5001122;28;20241;-82
2022/11/08 08:58:54;;;;;;;2.80;1.73;;;;;;;12.15;86.48;99991.09;5001519;28;20707;-81
2022/11/08 09:01:21;;;;;;;2.70;1.87;;;;;;;12.21;86.65;99988.28;5000836;28;20211;-82
2022/11/08 09:03:47;;;;;;;4.63;2.20;;;;;;;12.29;86.64;99983.66;4999567;28;20209;-80
2022/11/08 09:06:13;;;;;;;3.63;2.10;;;;;;;12.36;86.42;99993.91;4999330;28;20219;-82
2022/11/08 09:08:40;;;;;;;2.53;1.67;;;;;;;12.38;85.99;100011.25;5000688;28;20742;-80
2022/11/08 09:11:06;;;;;;;2.03;1.43;;;;;;;12.38;85.22;100016.50;4997423;28;20209;-79
2022/11/08 09:13:35;;;;;;;4.00;1.50;;;;;;;12.40;85.93;100008.59;4996618;28;20229;-81
2022/11/08 09:16:02;;;;;;;4.10;1.70;;;;;;;12.46;84.51;100016.25;4996775;28;20206;-81
2022/11/08 09:18:28;;;;;;;5.60;1.60;;;;;;;12.65;86.49;100011.25;4997017;28;20244;-79
2022/11/08 09:20:56;;;;;;;1.77;1.30;;;;;;;12.77;84.75;100016.06;5002072;28;20211;-80
2022/11/08 09:23:23;;;;;;;3.73;1.07;;;;;;;12.80;80.95;100089.28;5005003;28;20271;-81
2022/11/08 09:25:49;;;;;;;2.70;1.20;;;;;;;12.88;78.69;100173.72;4998935;28;20205;-81
2022/11/08 09:28:17;;;;;;;1.10;0.90;;;;;;;12.98;79.34;100216.16;4996881;28;20241;-82
2022/11/08 09:30:45;;;;;;;1.50;1.00;;;;;;;13.07;78.11;100244.72;4996157;28;20206;-80
2022/11/08 09:33:12;;;;;;;1.80;0.80;;;;;;;13.14;77.72;100278.56;4997259;28;20240;-81
2022/11/08 09:35:38;;;;;;;2.43;1.30;;;;;;;13.20;77.34;100268.78;4997188;28;20210;-82
2022/11/08 09:38:04;;;;;;;1.03;0.70;;;;;;;13.21;75.38;100303.69;4997754;28;20251;-80
2022/11/08 09:40:37;;;;;;;1.70;0.90;;;;;;;13.25;74.90;100355.97;4998707;28;20706;-81
2022/11/08 09:43:21;;;;;;;2.73;1.20;;;;;;;13.35;74.01;100382.78;4997383;28;20832;-78
2022/11/08 09:45:51;;;;;;;2.47;1.20;;;;;;;13.49;75.54;100385.81;4997189;28;20205;-79
2022/11/08 09:48:24;;;;;;;2.17;0.87;;;;;;;13.57;73.76;100403.09;4996468;28;20235;-80
2022/11/08 09:50:53;;;;;;;2.17;0.93;;;;;;;13.52;72.39;100447.81;4997090;28;20216;-81
2022/11/08 09:53:33;;;;;;;2.50;1.07;;;;;;;13.58;71.39;100459.91;4996716;28;20318;-80
2022/11/08 09:56:06;;;;;;;2.57;1.67;;;;;;;13.66;72.53;100482.34;4996077;28;20239;-80
2022/11/08 09:58:35;;;;;;;2.23;0.87;;;;;;;13.67;70.45;100522.53;4997774;28;20229;-78
2022/11/08 10:01:04;;;;;;;2.13;0.90;;;;;;;13.76;71.07;100522.28;4998958;28;20250;-80
2022/11/08 10:03:31;;;;;;;1.27;0.90;;;;;;;13.77;71.49;100504.75;4999035;28;20220;-81
2022/11/08 10:06:21;;;;;;;3.63;1.10;;;;;;;13.79;68.96;100542.28;4997795;28;20214;-81
2022/11/08 10:08:57;;;;;;;1.57;1.00;;;;;;;13.84;69.58;100564.88;4997226;28;20230;-81
2022/11/08 10:11:38;;;;;;;1.30;1.03;;;;;;;13.92;70.22;100553.28;4998851;28;20217;-80
2022/11/08 10:14:17;;;;;;;2.50;0.87;;;;;;;13.83;68.83;100543.91;4997452;28;20240;-80
2022/11/08 10:16:55;;;;;;;1.20;0.90;;;;;;;13.93;69.77;100550.59;4997453;28;20212;-81
2022/11/08 10:19:36;;;;;;;2.33;1.10;;;;;;;13.94;69.11;100551.47;4997871;28;20224;-80
2022/11/08 10:22:08;;;;;;;1.53;0.87;;;;;;;14.00;68.09;100573.13;4996501;28;20217;-80
2022/11/08 10:24:46;;;;;;;1.80;0.87;;;;;;;14.05;67.00;100586.97;4997035;28;20206;-79
2022/11/08 10:27:16;;;;;;;2.17;0.80;;;;;;;14.09;67.22;100599.09;4997092;28;20209;-82
2022/11/08 10:29:45;;;;;;;1.63;0.70;;;;;;;14.17;66.31;100642.63;4997027;28;20242;-79
2022/11/08 10:32:18;;;;;;;1.30;0.90;;;;;;;14.15;66.75;100637.41;4998281;28;20750;-80
2022/11/08 10:34:50;;;;;;;1.33;0.70;;;;;;;14.21;65.91;100633.75;5002351;28;20730;-80
2022/11/08 10:37:17;;;;;;;1.87;0.83;;;;;;;14.22;66.18;100633.69;5003912;28;20216;-80
2022/11/08 10:39:54;;;;;;;1.30;0.90;;;;;;;14.25;65.19;100612.63;5002930;28;20239;-79
2022/11/08 10:42:30;;;;;;;1.53;0.90;;;;;;;14.34;65.59;100587.81;5004376;28;20209;-81
2022/11/08 10:44:56;;;;;;;1.40;0.80;;;;;;;14.42;65.49;100634.84;5004329;28;20223;-79
2022/11/08 10:47:27;;;;;;;2.03;0.70;;;;;;;14.43;64.39;100647.06;5005931;28;20205;-80
2022/11/08 10:49:53;;;;;;;1.73;0.60;;;;;;;14.52;63.76;100672.19;5004361;28;20228;-79
2022/11/08 10:52:24;;;;;;;1.50;0.80;;;;;;;14.63;65.16;100652.59;4996740;28;20255;-81
2022/11/08 10:54:52;;;;;;;1.77;0.90;;;;;;;14.60;64.87;100644.78;4993529;28;20218;-79
2022/11/08 10:57:24;;;;;;;2.23;1.10;;;;;;;14.70;64.62;100632.22;5001905;28;20703;-80
2022/11/08 10:59:51;;;;;;;2.97;1.00;;;;;;;14.77;64.44;100638.16;5004717;28;20231;-80
2022/11/08 11:02:26;;;;;;;1.83;0.90;;;;;;;14.82;63.67;100644.09;5000513;28;20205;-79
2022/11/08 11:04:54;;;;;;;1.80;0.80;;;;;;;14.92;62.90;100655.16;5007352;28;20205;-80
2022/11/08 11:07:33;;;;;;;1.37;1.00;;;;;;;14.91;62.71;100629.81;5013182;28;20678;-79
2022/11/08 11:10:21;;;;;;;5.07;0.93;;;;;;;15.07;63.73;100621.31;5006254;28;20227;-80
2022/11/08 11:12:49;;;;;;;1.27;0.70;;;;;;;15.02;62.66;100640.78;5004050;28;20199;-79
2022/11/08 11:15:16;;;;;;;2.57;0.80;;;;;;;15.08;62.62;100622.16;5003630;28;20221;-80
2022/11/08 11:17:46;;;;;;;0.97;0.70;;;;;;;15.07;62.11;100649.38;4995454;28;20203;-78
2022/11/08 11:20:21;;;;;;;1.57;1.47;;;;;;;15.12;62.02;100651.84;4994664;28;20871;-79
2022/11/08 11:22:47;;;;;;;0.93;0.73;;;;;;;15.13;62.51;100649.19;4992725;28;20583;-78
2022/11/08 11:25:17;;;;;;;2.03;0.73;;;;;;;15.14;61.33;100632.47;4986018;28;20202;-79
2022/11/08 11:27:47;;;;;;;1.10;0.90;;;;;;;15.27;62.02;100646.06;4985933;28;20208;-79
2022/11/08 11:30:24;;;;;;;2.10;0.70;;;;;;;15.32;61.89;100659.03;4985914;28;20209;-80
2022/11/08 11:33:05;;;;;;;2.43;1.53;;;;;;;15.36;62.06;100658.91;4983225;28;20210;-80
2022/11/08 11:35:39;;;;;;;1.47;1.37;;;;;;;15.36;60.75;100676.44;4984136;28;20213;-79
2022/11/08 11:38:14;;;;;;;5.13;0.97;;;;;;;15.48;61.83;100676.03;5000649;28;20218;-80
2022/11/08 11:40:45;;;;;;;1.43;0.80;;;;;;;15.40;60.49;100659.63;5005114;28;20213;-81
2022/11/08 11:43:18;;;;;;;1.63;0.93;;;;;;;15.41;59.72;100687.66;5004762;28;20675;-80
2022/11/08 11:45:51;;;;;;;1.20;0.90;;;;;;;15.55;60.34;100722.25;5002604;28;20211;-81
2022/11/08 11:48:28;;;;;;;1.79;0.64;;;;;;;15.65;61.06;100725.41;4571310;28;10002724;-81
2022/11/08 11:50:56;;;;;;;0.80;0.80;;;;;;;15.71;60.36;100690.13;4983057;28;20215;-79
2022/11/08 11:53:26;;;;;;;1.30;0.97;;;;;;;15.67;59.61;100724.44;4983430;28;20269;-80